Time;durP1;ratioP1;P1;durP2;ratioP2;P2;SDS_P1;SDS_P2;PMS_P1;PMS_P2;Temp;Humidity;BMP_temperature;BMP_pressure;BME280_temperature;BME280_humidity;BME280_pressure;Samples;Min_cycle;Max_cycle;Signal;HPM_P1;HPM_P2
2022/10/15 00:01:32;;;;;;;;;;;;;;;5.60;100.00;98797.75;4993234;28;19922;-92
2022/10/15 00:10:20;;;;;;;;;;;;;;;5.66;100.00;98795.81;4880962;29;20341;-92
2022/10/15 00:15:28;;;;;;;;;;;;;;;;;;;;;
2022/10/15 00:17:54;;;;;;;;;;;;;;;5.63;100.00;98795.03;4995123;28;19918;-87
2022/10/15 00:20:51;;;;;;;;;;;;;;;5.71;100.00;98791.22;4996589;28;20417;-93
2022/10/15 00:23:45;;;;;;;;;;;;;;;5.69;100.00;98800.94;5004314;23;19930;-89
2022/10/15 00:32:05;;;;;;;;;;;;;;;5.56;100.00;98801.41;4878938;29;20509;-91
2022/10/15 00:37:20;;;;;;;;;;;;;;;5.70;100.00;98800.88;4872703;29;20399;-87
2022/10/15 00:39:45;;;;;;;;;;;;;;;5.67;100.00;98802.78;4877564;29;19962;-86
2022/10/15 00:42:10;;;;;;;;;;;;;;;5.64;100.00;98796.72;4877638;29;19923;-86
2022/10/15 03:38:06;;;;;;;;;;;;;;;7.69;100.00;98870.72;5297724;23;19930;-86
2022/10/15 03:40:36;;;;;;;;;;;;;;;7.75;100.00;98873.06;4997599;28;20057;-85
2022/10/15 03:43:07;;;;;;;;;;;;;;;7.83;100.00;98878.84;4997175;28;19917;-85
2022/10/15 03:45:46;;;;;;;;;;;;;;;7.88;100.00;98876.00;4996875;28;19924;-89
2022/10/15 03:48:14;;;;;;;;;;;;;;;7.92;100.00;98881.06;5012057;28;20280;-86
2022/10/15 03:50:42;;;;;;;;;;;;;;;7.97;100.00;98883.50;5012689;28;19956;-85
2022/10/15 03:53:14;;;;;;;;;;;;;;;8.00;100.00;98891.25;4996064;28;19979;-86
2022/10/15 03:55:50;;;;;;;;;;;;;;;8.03;100.00;98877.94;4996510;28;20504;-91
2022/10/15 03:58:15;;;;;;;;;;;;;;;8.13;100.00;98873.06;4997320;28;19918;-86
2022/10/15 04:03:50;;;;;;;;;;;;;;;8.17;100.00;98882.56;5015058;28;19977;-90
2022/10/15 04:06:15;;;;;;;;;;;;;;;8.22;100.00;98882.31;5013499;28;19924;-88
2022/10/15 04:08:40;;;;;;;;;;;;;;;8.26;100.00;98878.63;5015007;28;20288;-92
2022/10/15 04:11:18;;;;;;;;;;;;;;;8.30;100.00;98890.75;5015107;28;19918;-90
2022/10/15 04:13:49;;;;;;;;;;;;;;;8.34;100.00;98879.09;4988253;28;19933;-90
2022/10/15 04:30:04;;;;;;;;;;;;;;;;;;;;;
2022/10/15 04:35:40;;;;;;;;;;;;;;;8.57;100.00;98898.28;4771352;29;20016;-91
2022/10/15 04:38:11;;;;;;;;;;;;;;;8.57;100.00;98898.28;4793899;29;20013;-86
2022/10/15 04:40:37;;;;;;;;;;;;;;;8.59;100.00;98901.72;4871553;29;19919;-87
2022/10/15 04:43:11;;;;;;;;;;;;;;;8.59;100.00;98901.72;4961947;28;19917;-86
2022/10/15 04:45:36;;;;;;;;;;;;;;;8.63;100.00;98906.78;4995212;28;19924;-86
2022/10/15 04:48:21;;;;;;;;;;;;;;;8.62;100.00;98907.69;4996073;28;19917;-87
2022/10/15 04:53:38;;;;;;;;;;;;;;;8.66;100.00;98905.75;5013035;28;19953;-86
2022/10/15 04:56:19;;;;;;;;;;;;;;;;;;;;;
2022/10/15 04:58:55;;;;;;;;;;;;;;;8.71;100.00;98916.94;5013494;28;20404;-86
2022/10/15 05:01:21;;;;;;;;;;;;;;;8.71;100.00;98916.94;4987435;28;20377;-87
2022/10/15 05:03:48;;;;;;;;;;;;;;;7.91;100.00;98931.25;5013498;28;19928;-86
2022/10/15 05:06:18;;;;;;;;;;;;;;;7.43;100.00;98928.09;4995365;28;19975;-86
2022/10/15 05:08:51;;;;;;;;;;;;;;;7.20;100.00;98934.38;5013571;28;19917;-86
2022/10/15 05:11:18;;;;;;;;;;;;;;;7.05;100.00;98933.22;5010918;28;20292;-88
2022/10/15 05:13:46;;;;;;;;;;;;;;;7.03;100.00;98933.28;5013293;28;20016;-88
2022/10/15 05:16:37;;;;;;;;;;;;;;;6.96;100.00;98934.47;4996031;28;19914;-89
2022/10/15 05:19:07;;;;;;;;;;;;;;;6.92;100.00;98935.50;4978801;28;20419;-89
2022/10/15 07:57:38;;;;;;;;;;;;;;;5.52;100.00;98978.53;5082833;23;20389;-86
2022/10/15 08:00:06;;;;;;;;;;;;;;;5.48;100.00;98981.31;5004516;28;19933;-87
2022/10/15 08:02:32;;;;;;;;;;;;;;;5.56;100.00;98988.00;4986987;28;20356;-86
2022/10/15 08:04:57;;;;;;;;;;;;;;;5.56;100.00;98987.16;5005370;28;19957;-86
2022/10/15 08:07:22;;;;;;;;;;;;;;;5.52;100.00;98996.03;5004918;28;19924;-86
2022/10/15 08:09:47;;;;;;;;;;;;;;;5.49;100.00;98994.38;5004470;28;19918;-86
2022/10/15 08:12:13;;;;;;;;;;;;;;;5.51;100.00;98995.19;4986013;28;19928;-85
2022/10/15 08:14:39;;;;;;;;;;;;;;;5.57;100.00;98994.97;5004367;28;20385;-86
2022/10/15 08:17:05;;;;;;;;;;;;;;;5.54;100.00;99002.13;5004741;28;20376;-86
2022/10/15 08:19:30;;;;;;;;;;;;;;;5.51;100.00;98992.56;4986861;28;19921;-87
2022/10/15 08:21:56;;;;;;;;;;;;;;;5.56;100.00;98993.25;4985801;28;20007;-87
2022/10/15 08:24:29;;;;;;;;;;;;;;;5.59;100.00;98998.41;5004863;28;19925;-87
2022/10/15 08:26:56;;;;;;;;;;;;;;;5.64;100.00;98996.47;5002840;28;20009;-87
2022/10/15 08:29:21;;;;;;;;;;;;;;;5.57;100.00;98999.38;5004745;28;19918;-87
2022/10/15 08:31:46;;;;;;;;;;;;;;;5.67;100.00;98994.66;5002712;28;19964;-86
2022/10/15 08:34:12;;;;;;;;;;;;;;;5.63;100.00;98984.25;5004757;28;19921;-86
2022/10/15 08:36:37;;;;;;;;;;;;;;;5.60;100.00;98989.63;5002753;28;19972;-88
2022/10/15 08:39:04;;;;;;;;;;;;;;;5.71;100.00;98989.25;4986730;28;19930;-86
2022/10/15 08:41:30;;;;;;;;;;;;;;;5.68;100.00;98991.97;4984175;28;19918;-86
2022/10/15 08:43:55;;;;;;;;;;;;;;;5.72;100.00;98992.72;5003961;28;19924;-87
2022/10/15 08:46:30;;;;;;;;;;;;;;;5.68;100.00;98991.09;5004420;28;20000;-87
2022/10/15 08:48:58;;;;;;;;;;;;;;;5.66;100.00;98988.53;4986209;28;20007;-88
2022/10/15 08:51:41;;;;;;;;;;;;;;;5.64;100.00;98993.84;5004184;28;20012;-88
2022/10/15 08:54:12;;;;;;;;;;;;;;;5.64;100.00;98985.94;4986270;28;19918;-88
2022/10/15 08:56:42;;;;;;;;;;;;;;;5.66;100.00;98990.31;4986236;28;19929;-88
2022/10/15 08:59:27;;;;;;;;;;;;;;;5.61;100.00;98991.31;5011096;28;19924;-87
2022/10/15 09:02:06;;;;;;;;;;;;;;;5.66;100.00;98979.78;5011122;28;19924;-92
2022/10/15 09:04:32;;;;;;;;;;;;;;;5.60;100.00;98972.97;4987316;28;19918;-88
2022/10/15 09:07:20;;;;;;;;;;;;;;;5.68;100.00;98981.47;4995756;28;19924;-88
2022/10/15 09:09:48;;;;;;;;;;;;;;;5.64;100.00;98985.09;4995441;28;20012;-87
2022/10/15 09:12:28;;;;;;;;;;;;;;;5.68;100.00;98980.59;4993819;28;20570;-88
2022/10/15 09:14:54;;;;;;;;;;;;;;;5.63;100.00;98986.88;4995613;28;20395;-89
2022/10/15 09:17:24;;;;;;;;;;;;;;;5.64;100.00;98980.69;4995805;28;19924;-89
2022/10/15 09:20:01;;;;;;;;;;;;;;;5.61;100.00;98980.78;5013054;28;19925;-89
2022/10/15 09:22:28;;;;;;;;;;;;;;;5.62;100.00;98982.53;5011129;28;20024;-88
2022/10/15 09:24:54;;;;;;;;;;;;;;;5.62;100.00;98993.03;4986976;28;19922;-88
2022/10/15 09:27:35;;;;;;;;;;;;;;;;;;;;;
2022/10/15 09:30:06;;;;;;;;;;;;;;;5.62;100.00;98987.78;5012891;28;20296;-88
2022/10/15 09:32:34;;;;;;;;;;;;;;;5.64;100.00;98991.19;5013172;28;19925;-88
2022/10/15 09:35:14;;;;;;;;;;;;;;;5.64;100.00;98991.19;5012971;28;19923;-88
2022/10/15 09:37:45;;;;;;;;;;;;;;;5.58;100.00;98998.44;4979913;28;20008;-88
2022/10/15 09:40:19;;;;;;;;;;;;;;;5.62;100.00;98995.66;5012957;28;19921;-88
2022/10/15 09:42:48;;;;;;;;;;;;;;;5.63;100.00;98992.13;4986540;28;19994;-87
2022/10/15 09:45:14;;;;;;;;;;;;;;;5.60;100.00;98994.88;5010054;28;19921;-88
2022/10/15 09:47:43;;;;;;;;;;;;;;;5.56;100.00;98987.16;4995211;28;19924;-88
2022/10/15 09:50:11;;;;;;;;;;;;;;;5.60;100.00;98984.34;4995109;28;20372;-87
2022/10/15 09:52:55;;;;;;;;;;;;;;;5.53;100.00;98988.09;5010850;28;20303;-88
2022/10/15 09:55:20;;;;;;;;;;;;;;;5.55;100.00;98986.28;5011257;28;20499;-88
2022/10/15 09:57:47;;;;;;;;;;;;;;;5.51;100.00;98984.69;4994892;28;20008;-87
2022/10/15 10:00:14;;;;;;;;;;;;;;;5.51;100.00;98983.81;4994437;28;20203;-87
2022/10/15 10:02:39;;;;;;;;;;;;;;;5.40;100.00;98977.16;4994914;28;19960;-87
2022/10/15 10:05:25;;;;;;;;;;;;;;;5.50;100.00;98988.19;5012538;28;20656;-89
2022/10/15 10:08:05;;;;;;;;;;;;;;;5.56;100.00;98989.78;4996669;28;19918;-87
2022/10/15 10:10:43;;;;;;;;;;;;;;;5.49;100.00;98986.50;4993271;28;20277;-88
2022/10/15 10:13:21;;;;;;;;;;;;;;;5.50;100.00;98985.56;5011704;28;20472;-89
2022/10/15 10:15:48;;;;;;;;;;;;;;;5.58;100.00;98991.41;5011499;28;19917;-87
2022/10/15 10:18:21;;;;;;;;;;;;;;;5.53;100.00;98992.50;4994201;28;19918;-86
2022/10/15 10:20:57;;;;;;;;;;;;;;;5.57;100.00;98981.84;5011435;28;19917;-87
2022/10/15 10:23:24;;;;;;;;;;;;;;;5.51;100.00;98989.09;5012254;28;20000;-89
2022/10/15 10:25:50;;;;;;;;;;;;;;;5.46;100.00;98986.63;5010812;28;19922;-88
2022/10/15 10:28:18;;;;;;;;;;;;;;;5.44;100.00;98988.41;4994755;28;19924;-87
2022/10/15 10:30:44;;;;;;;;;;;;;;;5.51;100.00;98989.09;5012063;28;19917;-88
2022/10/15 10:33:12;;;;;;;;;;;;;;;5.56;100.00;98988.00;4994471;28;19921;-88
2022/10/15 10:35:49;;;;;;;;;;;;;;;5.48;100.00;98994.44;5011270;28;20284;-87
2022/10/15 10:38:49;;;;;;;;;;;;;;;5.43;100.00;98991.97;4994564;28;19917;-87
2022/10/15 10:41:14;;;;;;;;;;;;;;;5.50;100.00;98998.72;4972333;28;20157;-87
2022/10/15 10:43:51;;;;;;;;;;;;;;;5.49;100.00;99004.91;4996899;28;19928;-89
2022/10/15 10:46:19;;;;;;;;;;;;;;;5.45;100.00;98995.41;5018168;28;19968;-89
2022/10/15 10:48:49;;;;;;;;;;;;;;;5.51;100.00;98996.97;5000925;28;19932;-88
2022/10/15 10:51:21;;;;;;;;;;;;;;;5.50;100.00;99001.34;5018521;28;19929;-88
2022/10/15 10:53:56;;;;;;;;;;;;;;;5.42;100.00;99008.63;5018117;28;20001;-88
2022/10/15 10:56:27;;;;;;;;;;;;;;;5.51;100.00;99010.94;5016416;28;19921;-87
2022/10/15 10:59:14;;;;;;;;;;;;;;;5.53;100.00;99001.25;5000751;28;20015;-87
2022/10/15 11:01:39;;;;;;;;;;;;;;;5.45;100.00;99003.28;4991838;28;20324;-88
2022/10/15 11:04:11;;;;;;;;;;;;;;;5.44;100.00;99006.81;5018216;28;19921;-89
2022/10/15 11:06:49;;;;;;;;;;;;;;;5.52;100.00;99004.78;5018396;28;20012;-88
2022/10/15 11:09:30;;;;;;;;;;;;;;;5.58;100.00;99004.56;5018081;28;19929;-87
2022/10/15 11:12:11;;;;;;;;;;;;;;;5.51;100.00;99007.47;5016922;28;20025;-87
2022/10/15 11:14:46;;;;;;;;;;;;;;;5.53;100.00;99000.38;4984833;28;20059;-87
2022/10/15 11:17:18;;;;;;;;;;;;;;;5.56;100.00;99005.53;4991883;28;19929;-88
2022/10/15 11:19:46;;;;;;;;;;;;;;;5.55;100.00;99009.94;4992021;28;19937;-89
2022/10/15 11:22:42;;;;;;;;;;;;;;;5.51;100.00;99004.84;4999783;28;19924;-88
2022/10/15 11:25:22;;;;;;;;;;;;;;;5.44;100.00;99004.19;5017943;28;19917;-89
2022/10/15 11:27:50;;;;;;;;;;;;;;;5.50;100.00;99001.34;5000724;28;19928;-88
2022/10/15 11:30:37;;;;;;;;;;;;;;;5.51;100.00;98995.19;5018387;28;20338;-88
2022/10/15 11:33:16;;;;;;;;;;;;;;;5.46;100.00;98991.88;5017175;28;19925;-88
2022/10/15 11:35:47;;;;;;;;;;;;;;;5.52;100.00;98996.03;5018238;28;19963;-88
2022/10/15 11:38:13;;;;;;;;;;;;;;;5.49;100.00;98988.25;4991569;28;19992;-87
2022/10/15 11:40:56;;;;;;;;;;;;;;;5.56;100.00;98987.16;5016926;28;20710;-87
2022/10/15 11:43:29;;;;;;;;;;;;;;;5.57;100.00;98981.84;4992137;28;20372;-85
2022/10/15 11:46:12;;;;;;;;;;;;;;;5.60;100.00;98980.84;5014968;28;20009;-85
2022/10/15 11:48:56;;;;;;;;;;;;;;;5.58;100.00;98983.53;5017779;28;19925;-87
2022/10/15 11:51:21;;;;;;;;;;;;;;;5.53;100.00;98987.25;5000412;28;20376;-87
2022/10/15 11:53:52;;;;;;;;;;;;;;;5.48;100.00;98995.28;5017983;28;19975;-88
2022/10/15 11:56:29;;;;;;;;;;;;;;;5.57;100.00;98999.38;4987484;28;19928;-87
2022/10/15 11:59:04;;;;;;;;;;;;;;;5.51;100.00;98989.94;5005420;28;19924;-87
2022/10/15 12:01:37;;;;;;;;;;;;;;;5.43;100.00;98987.56;5004919;28;20427;-88
2022/10/15 12:04:09;;;;;;;;;;;;;;;5.46;100.00;98982.22;5004818;28;19964;-87
2022/10/15 12:06:37;;;;;;;;;;;;;;;5.50;100.00;98987.34;5003715;28;19922;-87
2022/10/15 12:09:04;;;;;;;;;;;;;;;5.48;100.00;98981.31;5004651;28;19925;-87
2022/10/15 12:11:44;;;;;;;;;;;;;;;5.49;100.00;98986.50;4986066;28;19918;-87
2022/10/15 12:14:20;;;;;;;;;;;;;;;5.52;100.00;98980.25;4987142;28;19918;-88
2022/10/15 12:17:01;;;;;;;;;;;;;;;5.52;100.00;98972.38;4986127;28;19918;-87
2022/10/15 12:19:37;;;;;;;;;;;;;;;5.49;100.00;98976.00;4986212;28;19917;-87
2022/10/15 12:22:08;;;;;;;;;;;;;;;5.55;100.00;98969.66;4986778;28;20289;-89
2022/10/15 12:24:36;;;;;;;;;;;;;;;5.58;100.00;98959.88;4987080;28;19949;-87
2022/10/15 12:27:17;;;;;;;;;;;;;;;5.56;100.00;98956.47;5003060;28;19996;-87
2022/10/15 12:29:43;;;;;;;;;;;;;;;5.52;100.00;98954.88;4997658;28;19917;-87
2022/10/15 12:32:22;;;;;;;;;;;;;;;5.45;100.00;98950.72;5004560;28;20365;-86
2022/10/15 12:34:53;;;;;;;;;;;;;;;5.45;100.00;98959.47;5003159;28;19923;-87
2022/10/15 12:37:21;;;;;;;;;;;;;;;5.49;100.00;98959.34;5003293;28;19929;-87
2022/10/15 12:39:56;;;;;;;;;;;;;;;5.53;100.00;98963.59;5004752;28;19925;-89
2022/10/15 12:42:21;;;;;;;;;;;;;;;5.51;100.00;98954.94;4984826;28;19929;-86
2022/10/15 12:44:47;;;;;;;;;;;;;;;5.44;100.00;98947.25;5004425;28;20365;-86
2022/10/15 12:47:13;;;;;;;;;;;;;;;5.44;100.00;98956.88;4986657;28;19932;-87
2022/10/15 12:49:38;;;;;;;;;;;;;;;5.51;100.00;98954.94;5003835;28;20373;-88
2022/10/15 12:52:23;;;;;;;;;;;;;;;5.43;100.00;98950.78;5003986;28;20013;-88
2022/10/15 12:54:53;;;;;;;;;;;;;;;5.46;100.00;98952.44;4986691;28;19957;-88
2022/10/15 12:57:33;;;;;;;;;;;;;;;5.48;100.00;98958.50;4987981;28;19926;-88
2022/10/15 13:00:00;;;;;;;;;;;;;;;5.50;100.00;98955.81;5012976;28;19925;-89
2022/10/15 13:02:34;;;;;;;;;;;;;;;5.50;100.00;98961.06;5013632;28;19929;-88
2022/10/15 13:05:02;;;;;;;;;;;;;;;5.46;100.00;98960.34;4987113;28;19944;-91
2022/10/15 13:07:30;;;;;;;;;;;;;;;5.49;100.00;98960.22;4995488;28;19940;-86
2022/10/15 13:09:55;;;;;;;;;;;;;;;5.48;100.00;98945.38;5013921;28;19925;-84
2022/10/15 13:12:22;;;;;;;;;;;;;;;5.50;100.00;98935.66;5012135;28;19921;-87
2022/10/15 13:14:51;;;;;;;;;;;;;;;5.43;100.00;98939.41;4995766;28;19973;-86
2022/10/15 13:17:20;;;;;;;;;;;;;;;5.42;100.00;98954.31;5010456;28;20384;-88
2022/10/15 13:19:49;;;;;;;;;;;;;;;5.52;100.00;98952.25;4995824;28;19949;-88
2022/10/15 13:22:22;;;;;;;;;;;;;;;5.55;100.00;98946.00;5013165;28;20040;-87
2022/10/15 13:24:47;;;;;;;;;;;;;;;5.53;100.00;98942.56;5013332;28;19925;-89
2022/10/15 13:27:20;;;;;;;;;;;;;;;5.47;100.00;98946.25;5011825;28;19921;-88
2022/10/15 13:29:53;;;;;;;;;;;;;;;5.49;100.00;98946.22;5013032;28;19922;-89
2022/10/15 13:32:19;;;;;;;;;;;;;;;5.45;100.00;98948.09;5012768;28;20066;-86
2022/10/15 13:34:47;;;;;;;;;;;;;;;5.50;100.00;98956.66;5013125;28;20396;-85
2022/10/15 13:37:18;;;;;;;;;;;;;;;5.53;100.00;98951.31;4994495;28;19928;-84
2022/10/15 13:39:44;;;;;;;;;;;;;;;5.53;100.00;98961.81;5012551;28;20102;-87
2022/10/15 13:42:12;;;;;;;;;;;;;;;5.51;100.00;98950.50;5011408;28;19917;-89
2022/10/15 13:44:37;;;;;;;;;;;;;;;5.48;100.00;98942.75;4995282;28;19921;-88
2022/10/15 13:47:16;;;;;;;;;;;;;;;5.53;100.00;98951.31;4995320;28;20407;-88
2022/10/15 13:49:41;;;;;;;;;;;;;;;5.50;100.00;98940.06;4987182;28;19917;-85
2022/10/15 13:52:07;;;;;;;;;;;;;;;5.53;100.00;98943.44;5012982;28;20013;-85
2022/10/15 13:54:34;;;;;;;;;;;;;;;5.57;100.00;98945.03;4994048;28;19996;-88
2022/10/15 13:57:00;;;;;;;;;;;;;;;5.52;100.00;98943.47;5011092;28;19926;-87
2022/10/15 13:59:30;;;;;;;;;;;;;;;5.53;100.00;98940.78;4994890;28;20108;-87
2022/10/15 14:02:03;;;;;;;;;;;;;;;5.53;100.00;98943.44;5012186;28;20399;-89
2022/10/15 14:04:29;;;;;;;;;;;;;;;5.49;100.00;98949.72;5012799;28;20339;-90
2022/10/15 14:07:01;;;;;;;;;;;;;;;5.52;100.00;98946.97;4990865;28;19929;-89
2022/10/15 14:09:29;;;;;;;;;;;;;;;5.48;100.00;98942.75;5004185;28;20482;-86
2022/10/15 14:11:55;;;;;;;;;;;;;;;5.44;100.00;98955.13;5007671;28;19928;-93
2022/10/15 14:14:40;;;;;;;;;;;;;;;5.55;100.00;98960.03;5010285;28;20446;-88
2022/10/15 14:17:19;;;;;;;;;;;;;;;5.40;100.00;98971.06;5008104;28;19968;-90
2022/10/15 14:19:48;;;;;;;;;;;;;;;5.44;100.00;98977.91;5000015;28;19922;-88
2022/10/15 14:22:18;;;;;;;;;;;;;;;5.50;100.00;98977.69;5010685;28;20008;-86
2022/10/15 14:24:45;;;;;;;;;;;;;;;5.54;100.00;98968.81;5010151;28;19996;-90
2022/10/15 14:27:19;;;;;;;;;;;;;;;5.51;100.00;98971.53;5009475;28;20542;-90
2022/10/15 14:29:45;;;;;;;;;;;;;;;5.55;100.00;98969.66;5010086;28;20403;-88
2022/10/15 14:32:25;;;;;;;;;;;;;;;5.45;100.00;98972.59;4994988;28;19917;-93
2022/10/15 14:34:51;;;;;;;;;;;;;;;5.48;100.00;98968.16;5012162;28;19921;-91
2022/10/15 14:37:35;;;;;;;;;;;;;;;5.54;100.00;98967.94;5008869;28;19918;-91
2022/10/15 14:40:10;;;;;;;;;;;;;;;5.48;100.00;98973.41;4988790;28;20041;-91
2022/10/15 14:42:40;;;;;;;;;;;;;;;5.44;100.00;98972.66;4985394;28;19947;-90
2022/10/15 14:45:11;;;;;;;;;;;;;;;5.42;100.00;98969.22;5010471;28;20376;-89
2022/10/15 14:47:37;;;;;;;;;;;;;;;5.52;100.00;98964.50;5007726;28;19960;-87
2022/10/15 14:50:04;;;;;;;;;;;;;;;5.46;100.00;98960.34;5004149;28;19964;-90
2022/10/15 14:52:31;;;;;;;;;;;;;;;5.42;100.00;98962.19;4991957;28;20483;-91
2022/10/15 14:55:49;;;;;;;;;;;;;;;5.45;100.00;98958.59;5009458;28;19925;-94
2022/10/15 14:58:18;;;;;;;;;;;;;;;;;;;;;
2022/10/15 15:00:45;;;;;;;;;;;;;;;5.49;100.00;98965.50;5012984;28;20345;-89
2022/10/15 15:03:16;;;;;;;;;;;;;;;5.48;100.00;98958.50;4994531;28;20012;-90
2022/10/15 15:05:44;;;;;;;;;;;;;;;5.48;100.00;98965.53;5011494;28;19971;-90
2022/10/15 15:08:12;;;;;;;;;;;;;;;5.41;100.00;98970.16;5010852;28;19930;-88
2022/10/15 15:10:37;;;;;;;;;;;;;;;5.45;100.00;98969.13;4989640;28;20019;-88
2022/10/15 15:13:03;;;;;;;;;;;;;;;5.49;100.00;98968.13;5010020;28;20335;-89
2022/10/15 15:15:28;;;;;;;;;;;;;;;5.49;100.00;98964.59;5008579;28;19929;-87
2022/10/15 15:17:53;;;;;;;;;;;;;;;5.49;100.00;98964.59;5006358;28;19937;-88
2022/10/15 15:20:19;;;;;;;;;;;;;;;5.50;100.00;98967.19;5007387;28;20032;-90
2022/10/15 15:22:48;;;;;;;;;;;;;;;5.51;100.00;98968.91;5009842;28;19964;-86
2022/10/15 15:25:18;;;;;;;;;;;;;;;5.54;100.00;98971.44;4991067;28;19943;-90
2022/10/15 15:27:43;;;;;;;;;;;;;;;5.46;100.00;98970.84;5010562;28;19924;-90
2022/10/15 15:30:29;;;;;;;;;;;;;;;5.49;100.00;98976.00;5012481;28;19917;-89
2022/10/15 15:32:54;;;;;;;;;;;;;;;5.49;100.00;98976.00;5011956;28;20853;-91
2022/10/15 15:35:22;;;;;;;;;;;;;;;5.50;100.00;98980.31;4995645;28;20016;-90
2022/10/15 15:37:47;;;;;;;;;;;;;;;5.54;100.00;98974.06;5014805;28;19960;-90
2022/10/15 15:40:13;;;;;;;;;;;;;;;5.43;100.00;98968.31;5015567;28;19979;-90
2022/10/15 15:42:38;;;;;;;;;;;;;;;5.51;100.00;98979.41;4996399;28;19921;-87
2022/10/15 15:45:04;;;;;;;;;;;;;;;5.54;100.00;98981.09;4997720;28;19922;-88
2022/10/15 15:47:31;;;;;;;;;;;;;;;5.48;100.00;98979.53;5015657;28;19918;-89
2022/10/15 15:49:57;;;;;;;;;;;;;;;5.48;100.00;98979.53;5010799;28;19928;-89
2022/10/15 15:52:22;;;;;;;;;;;;;;;5.49;100.00;98983.88;5014662;28;19925;-88
2022/10/15 15:54:48;;;;;;;;;;;;;;;5.52;100.00;98982.91;5013504;28;21011;-89
2022/10/15 15:57:13;;;;;;;;;;;;;;;5.49;100.00;98983.88;4995742;28;19922;-87
2022/10/15 15:59:38;;;;;;;;;;;;;;;5.52;100.00;98982.91;5015090;28;19944;-88
2022/10/15 16:02:04;;;;;;;;;;;;;;;5.51;100.00;98981.19;5015039;28;19921;-86
2022/10/15 16:04:30;;;;;;;;;;;;;;;5.52;100.00;98978.53;5014761;28;19917;-89
2022/10/15 16:06:55;;;;;;;;;;;;;;;5.45;100.00;98992.78;4997225;28;19917;-89
2022/10/15 16:09:25;;;;;;;;;;;;;;;5.45;100.00;98988.34;4997162;28;19917;-89
2022/10/15 16:11:52;;;;;;;;;;;;;;;5.44;100.00;99002.44;4996079;28;19918;-88
2022/10/15 16:14:17;;;;;;;;;;;;;;;5.43;100.00;98990.19;5013978;28;20015;-89
2022/10/15 16:16:45;;;;;;;;;;;;;;;5.50;100.00;98990.81;5013785;28;20007;-90
2022/10/15 16:19:21;;;;;;;;;;;;;;;5.46;100.00;98991.88;4996393;28;19917;-89
2022/10/15 16:22:07;;;;;;;;;;;;;;;5.44;100.00;98998.91;5013044;28;19988;-87
2022/10/15 16:24:34;;;;;;;;;;;;;;;5.44;100.00;98996.28;5013408;28;19917;-88
2022/10/15 16:27:02;;;;;;;;;;;;;;;5.42;100.00;98996.34;5012950;28;19917;-88
2022/10/15 16:29:31;;;;;;;;;;;;;;;5.42;100.00;99000.75;4998928;28;19922;-90
2022/10/15 16:32:09;;;;;;;;;;;;;;;;;;;;;
2022/10/15 16:34:34;;;;;;;;;;;;;;;5.41;100.00;99005.16;5011959;28;19932;-90
2022/10/15 16:37:02;;;;;;;;;;;;;;;5.44;100.00;99009.44;4993760;28;20012;-92
2022/10/15 16:39:37;;;;;;;;;;;;;;;5.50;100.00;99034.66;4998054;28;19917;-89
2022/10/15 16:46:08;;;;;;;;;;;;;;;;;;;;;
2022/10/15 16:48:58;;;;;;;;;;;;;;;5.55;100.00;99035.34;4929580;29;19922;-93
2022/10/15 16:51:52;;;;;;;;;;;;;;;5.43;100.00;99036.63;4838301;29;19964;-92
2022/10/15 16:54:20;;;;;;;;;;;;;;;5.52;100.00;99032.81;4917737;29;19943;-88
2022/10/15 16:56:53;;;;;;;;;;;;;;;5.52;100.00;99033.72;4991978;28;19929;-88
2022/10/15 16:59:44;;;;;;;;;;;;;;;;;;;;;
2022/10/15 17:02:10;;;;;;;;;;;;;;;5.46;100.00;99041.78;5012825;28;19923;-88
2022/10/15 17:04:38;;;;;;;;;;;;;;;5.48;100.00;99036.50;5012259;28;20012;-90
2022/10/15 17:07:21;;;;;;;;;;;;;;;5.45;100.00;99038.28;4995817;28;19917;-92
2022/10/15 17:09:47;;;;;;;;;;;;;;;5.41;100.00;99036.69;4995310;28;19921;-86
2022/10/15 17:12:43;;;;;;;;;;;;;;;5.50;100.00;99040.75;5011771;28;20296;-89
2022/10/15 17:15:16;;;;;;;;;;;;;;;5.42;100.00;99059.41;5012776;28;20368;-87
2022/10/15 17:17:44;;;;;;;;;;;;;;;5.39;100.00;99059.53;5012500;28;19964;-87
2022/10/15 17:20:14;;;;;;;;;;;;;;;5.43;100.00;99070.78;4994560;28;19927;-87
2022/10/15 17:22:39;;;;;;;;;;;;;;;5.37;100.00;99057.84;5012401;28;19921;-87
2022/10/15 17:25:05;;;;;;;;;;;;;;;5.36;100.00;99066.63;5012826;28;19993;-87
2022/10/15 17:27:56;;;;;;;;;;;;;;;5.39;100.00;99069.16;4994312;28;19929;-91
2022/10/15 17:30:29;;;;;;;;;;;;;;;5.39;100.00;99067.41;4987681;28;19917;-87
2022/10/15 17:33:05;;;;;;;;;;;;;;;;;;;;;
2022/10/15 17:35:43;;;;;;;;;;;;;;;5.37;100.00;99055.22;5010644;28;20288;-90
2022/10/15 17:38:11;;;;;;;;;;;;;;;5.37;100.00;99071.84;5008498;28;19968;-87
2022/10/15 17:44:04;;;;;;;;;;;;;;;5.31;100.00;99089.56;4997159;28;19925;-90
2022/10/15 17:46:39;;;;;;;;;;;;;;;;;;;;;
2022/10/15 17:49:05;;;;;;;;;;;;;;;5.42;100.00;99092.72;5012623;28;20306;-89
2022/10/15 17:52:00;;;;;;;;;;;;;;;5.42;100.00;99095.34;5012506;28;20024;-88
2022/10/15 18:03:15;;;;;;;;;;;;;;;8.72;100.00;99129.97;4972201;28;19926;-88
2022/10/15 18:06:06;;;;;;;;;;;;;;;6.24;100.00;99119.75;4958398;28;19933;-90
2022/10/15 18:08:37;;;;;;;;;;;;;;;5.99;100.00;99128.50;4962794;28;20396;-91
2022/10/15 18:11:07;;;;;;;;;;;;;;;5.84;100.00;99129.00;4971509;28;20045;-91
2022/10/15 18:13:34;;;;;;;;;;;;;;;5.80;100.00;99124.75;4967567;28;19922;-85
2022/10/15 18:19:20;;;;;;;;;;;;;;;;;;;;;
2022/10/15 18:21:46;;;;;;;;;;;;;;;5.71;100.00;99132.94;4945949;29;19922;-87
2022/10/15 18:24:34;;;;;;;;;;;;;;;5.68;100.00;99123.41;4946106;28;20465;-92
2022/10/15 18:27:30;;;;;;;;;;;;;;;5.72;100.00;99113.63;4934989;29;19926;-89
2022/10/15 18:32:30;;;;;;;;;;;;;;;5.67;100.00;99121.69;4989726;28;19926;-91
2022/10/15 18:38:42;;;;;;;;;;;;;;;;;;;;;
2022/10/15 18:47:22;;;;;;;;;;;;;;;5.72;100.00;99135.50;4915197;29;19923;-92
2022/10/15 18:52:51;;;;;;;;;;;;;;;5.72;100.00;99129.41;4878443;29;20384;-91
2022/10/15 18:55:32;;;;;;;;;;;;;;;;;;;;;
2022/10/15 18:58:06;;;;;;;;;;;;;;;5.71;100.00;99148.72;4991196;28;19933;-93
2022/10/15 19:03:34;;;;;;;;;;;;;;;7.51;100.00;99144.78;4986995;28;19991;-94
2022/10/15 19:06:11;;;;;;;;;;;;;;;6.45;100.00;99162.00;4993674;28;20385;-89
2022/10/15 19:08:47;;;;;;;;;;;;;;;6.09;100.00;99173.75;4981935;28;19964;-91
2022/10/15 19:11:13;;;;;;;;;;;;;;;5.89;100.00;99170.88;4986661;28;19913;-92
2022/10/15 19:13:47;;;;;;;;;;;;;;;5.83;100.00;99169.34;4997561;28;19918;-96
2022/10/15 19:16:30;;;;;;;;;;;;;;;6.40;100.00;99163.91;4996408;28;19925;-95
2022/10/15 19:18:59;;;;;;;;;;;;;;;5.97;100.00;99177.66;4996821;28;19924;-93
2022/10/15 19:21:51;;;;;;;;;;;;;;;5.85;100.00;99171.94;4986517;23;19965;-89
2022/10/15 19:24:17;;;;;;;;;;;;;;;5.80;100.00;99180.81;4959288;28;19956;-90
2022/10/15 19:26:44;;;;;;;;;;;;;;;5.86;100.00;99185.03;4975851;28;19976;-91
2022/10/15 19:29:28;;;;;;;;;;;;;;;5.81;100.00;99185.16;4977553;28;19928;-88
2022/10/15 19:31:56;;;;;;;;;;;;;;;5.81;100.00;99182.53;4959411;28;19918;-91
2022/10/15 19:41:03;;;;;;;;;;;;;;;5.73;100.00;99178.47;5021952;23;19988;-94
2022/10/15 19:43:09;;;;;;;;;;;;;;;5.78;100.00;99180.00;4978992;28;20020;-92
2022/10/15 19:45:41;;;;;;;;;;;;;;;5.99;100.00;99162.69;4975870;28;19918;-91
2022/10/15 19:51:03;;;;;;;;;;;;;;;;;;;;;
2022/10/15 19:53:53;;;;;;;;;;;;;;;5.72;100.00;99171.47;4976020;28;19921;-94
2022/10/15 19:56:21;;;;;;;;;;;;;;;5.67;100.00;99176.03;4921903;28;19924;-91
2022/10/15 19:59:03;;;;;;;;;;;;;;;;;;;;;
2022/10/15 20:01:49;;;;;;;;;;;;;;;5.70;100.00;99175.94;4986092;28;19929;-91
2022/10/15 20:04:15;;;;;;;;;;;;;;;5.69;100.00;99172.41;4985505;28;20533;-91
2022/10/15 20:06:50;;;;;;;;;;;;;;;;;;;;;
2022/10/15 20:09:23;;;;;;;;;;;;;;;5.61;100.00;99180.53;4986007;28;19917;-91
2022/10/15 20:12:00;;;;;;;;;;;;;;;5.61;100.00;99172.66;4967766;28;19925;-93
2022/10/15 20:14:25;;;;;;;;;;;;;;;5.58;100.00;99171.91;4967369;28;19953;-85
2022/10/15 20:16:59;;;;;;;;;;;;;;;5.68;100.00;99180.34;4983927;28;20340;-88
2022/10/15 20:19:27;;;;;;;;;;;;;;;5.66;100.00;99184.81;4965651;28;19976;-93
2022/10/15 20:22:31;;;;;;;;;;;;;;;;;;;;;
2022/10/15 20:25:17;;;;;;;;;;;;;;;5.74;100.00;99194.16;4986529;28;20258;-87
2022/10/15 20:27:54;;;;;;;;;;;;;;;5.80;100.00;99195.72;4962064;28;19956;-90